sensor_id;sensor_type;location;lat;lon;timestamp;pressure;altitude;pressure_sealevel;temperature;humidity
48862;BME280;34681;49.188;-0.374;2023-04-25T00:00:28;101035.09;;;13.01;64.25
48862;BME280;34681;49.188;-0.374;2023-04-25T00:02:53;101028.84;;;13.09;63.71
48862;BME280;34681;49.188;-0.374;2023-04-25T00:05:20;101036.22;;;13.08;63.66
48862;BME280;34681;49.188;-0.374;2023-04-25T00:07:48;101036.25;;;12.99;64.17
48862;BME280;34681;49.188;-0.374;2023-04-25T00:10:13;101035.09;;;13.01;64.32
48862;BME280;34681;49.188;-0.374;2023-04-25T00:12:39;101037.28;;;13.25;63.90
48862;BME280;34681;49.188;-0.374;2023-04-25T00:15:05;101041.72;;;13.08;64.12
48862;BME280;34681;49.188;-0.374;2023-04-25T00:17:31;101034.03;;;13.30;63.70
48862;BME280;34681;49.188;-0.374;2023-04-25T00:19:56;101031.28;;;13.47;63.25
48862;BME280;34681;49.188;-0.374;2023-04-25T00:22:23;101029.09;;;13.51;63.10
48862;BME280;34681;49.188;-0.374;2023-04-25T00:24:48;101044.72;;;13.33;63.51
48862;BME280;34681;49.188;-0.374;2023-04-25T00:27:14;101031.38;;;13.20;63.98
48862;BME280;34681;49.188;-0.374;2023-04-25T00:29:40;101030.25;;;13.48;63.36
48862;BME280;34681;49.188;-0.374;2023-04-25T00:32:05;101026.09;;;13.44;63.48
48862;BME280;34681;49.188;-0.374;2023-04-25T00:34:30;101036.63;;;13.49;63.24
48862;BME280;34681;49.188;-0.374;2023-04-25T00:36:56;101030.88;;;13.60;62.95
48862;BME280;34681;49.188;-0.374;2023-04-25T00:39:22;101033.34;;;13.28;63.55
48862;BME280;34681;49.188;-0.374;2023-04-25T00:41:47;101028.00;;;13.44;63.30
48862;BME280;34681;49.188;-0.374;2023-04-25T00:44:14;101030.25;;;13.48;62.90
48862;BME280;34681;49.188;-0.374;2023-04-25T00:46:42;101043.19;;;13.56;63.14
48862;BME280;34681;49.188;-0.374;2023-04-25T00:49:07;101045.38;;;13.70;62.67
48862;BME280;34681;49.188;-0.374;2023-04-25T00:51:33;101042.56;;;13.62;63.17
48862;BME280;34681;49.188;-0.374;2023-04-25T00:53:59;101044.53;;;13.70;63.27
48862;BME280;34681;49.188;-0.374;2023-04-25T00:56:25;101049.41;;;13.76;62.77
48862;BME280;34681;49.188;-0.374;2023-04-25T00:58:53;101057.38;;;13.43;63.75
48862;BME280;34681;49.188;-0.374;2023-04-25T01:01:19;101046.75;;;13.48;63.83
48862;BME280;34681;49.188;-0.374;2023-04-25T01:03:46;101048.06;;;13.62;63.38
48862;BME280;34681;49.188;-0.374;2023-04-25T01:06:11;101056.94;;;13.56;63.63
48862;BME280;34681;49.188;-0.374;2023-04-25T01:08:38;101059.06;;;13.62;63.58
48862;BME280;34681;49.188;-0.374;2023-04-25T01:11:04;101069.91;;;13.28;64.32
48862;BME280;34681;49.188;-0.374;2023-04-25T01:13:30;101068.97;;;13.37;64.37
48862;BME280;34681;49.188;-0.374;2023-04-25T01:15:57;101075.50;;;13.36;64.24
48862;BME280;34681;49.188;-0.374;2023-04-25T01:18:22;101080.13;;;13.54;64.05
48862;BME280;34681;49.188;-0.374;2023-04-25T01:20:50;101079.00;;;13.11;65.07
48862;BME280;34681;49.188;-0.374;2023-04-25T01:23:16;101073.66;;;12.54;66.41
48862;BME280;34681;49.188;-0.374;2023-04-25T01:25:41;101074.25;;;12.21;67.91
48862;BME280;34681;49.188;-0.374;2023-04-25T01:28:07;101082.03;;;12.16;68.37
48862;BME280;34681;49.188;-0.374;2023-04-25T01:30:33;101083.25;;;11.94;68.77
48862;BME280;34681;49.188;-0.374;2023-04-25T01:32:58;101089.78;;;12.30;68.44
48862;BME280;34681;49.188;-0.374;2023-04-25T01:35:24;101081.44;;;12.22;68.17
48862;BME280;34681;49.188;-0.374;2023-04-25T01:37:50;101080.94;;;11.99;68.45
48862;BME280;34681;49.188;-0.374;2023-04-25T01:40:17;101092.03;;;11.97;68.79
48862;BME280;34681;49.188;-0.374;2023-04-25T01:42:44;101088.31;;;11.69;69.54
48862;BME280;34681;49.188;-0.374;2023-04-25T01:45:11;101088.75;;;11.65;69.70
48862;BME280;34681;49.188;-0.374;2023-04-25T01:47:36;101098.56;;;11.67;69.30
48862;BME280;34681;49.188;-0.374;2023-04-25T01:50:03;101097.38;;;11.21;70.79
48862;BME280;34681;49.188;-0.374;2023-04-25T01:52:29;101098.38;;;11.11;71.42
48862;BME280;34681;49.188;-0.374;2023-04-25T01:54:56;101098.78;;;11.06;71.88
48862;BME280;34681;49.188;-0.374;2023-04-25T01:57:22;101089.72;;;11.25;71.12
48862;BME280;34681;49.188;-0.374;2023-04-25T01:59:48;101093.63;;;11.13;71.69
48862;BME280;34681;49.188;-0.374;2023-04-25T02:02:14;101101.44;;;11.27;71.59
48862;BME280;34681;49.188;-0.374;2023-04-25T02:04:39;101104.88;;;11.29;71.56
48862;BME280;34681;49.188;-0.374;2023-04-25T02:07:04;101113.50;;;11.05;72.51
48862;BME280;34681;49.188;-0.374;2023-04-25T02:09:30;101104.44;;;11.14;72.91
48862;BME280;34681;49.188;-0.374;2023-04-25T02:11:55;101101.53;;;10.96;72.39
48862;BME280;34681;49.188;-0.374;2023-04-25T02:14:21;101109.91;;;10.64;73.00
48862;BME280;34681;49.188;-0.374;2023-04-25T02:16:46;101111.81;;;10.74;73.11
48862;BME280;34681;49.188;-0.374;2023-04-25T02:19:12;101106.97;;;10.77;72.73
48862;BME280;34681;49.188;-0.374;2023-04-25T02:21:37;101108.38;;;10.72;72.70
48862;BME280;34681;49.188;-0.374;2023-04-25T02:24:03;101105.84;;;10.59;73.27
48862;BME280;34681;49.188;-0.374;2023-04-25T02:26:29;101120.91;;;10.74;72.69
48862;BME280;34681;49.188;-0.374;2023-04-25T02:28:55;101122.03;;;10.62;73.21
48862;BME280;34681;49.188;-0.374;2023-04-25T02:31:21;101115.47;;;10.44;73.87
48862;BME280;34681;49.188;-0.374;2023-04-25T02:33:47;101108.09;;;10.34;74.50
48862;BME280;34681;49.188;-0.374;2023-04-25T02:36:13;101117.88;;;10.37;73.91
48862;BME280;34681;49.188;-0.374;2023-04-25T02:38:38;101121.38;;;10.49;73.64
48862;BME280;34681;49.188;-0.374;2023-04-25T02:41:04;101113.81;;;10.31;74.21
48862;BME280;34681;49.188;-0.374;2023-04-25T02:43:29;101113.53;;;10.13;74.90
48862;BME280;34681;49.188;-0.374;2023-04-25T02:45:54;101114.69;;;10.11;75.43
48862;BME280;34681;49.188;-0.374;2023-04-25T02:48:20;101123.06;;;9.98;76.06
48862;BME280;34681;49.188;-0.374;2023-04-25T02:50:45;101128.88;;;10.26;75.23
48862;BME280;34681;49.188;-0.374;2023-04-25T02:53:11;101131.50;;;10.27;74.94
48862;BME280;34681;49.188;-0.374;2023-04-25T02:55:36;101131.81;;;10.13;75.57
48862;BME280;34681;49.188;-0.374;2023-04-25T02:58:01;101134.50;;;10.24;75.69
48862;BME280;34681;49.188;-0.374;2023-04-25T03:00:27;101139.59;;;10.18;75.09
48862;BME280;34681;49.188;-0.374;2023-04-25T03:02:53;101144.56;;;10.03;75.74
48862;BME280;34681;49.188;-0.374;2023-04-25T03:05:18;101145.34;;;10.14;75.48
48862;BME280;34681;49.188;-0.374;2023-04-25T03:07:44;101151.28;;;10.40;75.05
48862;BME280;34681;49.188;-0.374;2023-04-25T03:10:11;101154.81;;;10.52;73.84
48862;BME280;34681;49.188;-0.374;2023-04-25T03:12:37;101154.16;;;10.39;74.31
48862;BME280;34681;49.188;-0.374;2023-04-25T03:15:02;101161.69;;;10.47;73.36
48862;BME280;34681;49.188;-0.374;2023-04-25T03:17:29;101151.44;;;10.18;74.24
48862;BME280;34681;49.188;-0.374;2023-04-25T03:19:54;101160.63;;;10.38;74.17
48862;BME280;34681;49.188;-0.374;2023-04-25T03:22:21;101158.63;;;10.19;73.56
48862;BME280;34681;49.188;-0.374;2023-04-25T03:24:46;101171.75;;;10.04;74.01
48862;BME280;34681;49.188;-0.374;2023-04-25T03:27:12;101174.66;;;9.92;74.00
48862;BME280;34681;49.188;-0.374;2023-04-25T03:29:37;101170.28;;;10.00;73.37
48862;BME280;34681;49.188;-0.374;2023-04-25T03:32:03;101171.63;;;9.85;73.56
48862;BME280;34681;49.188;-0.374;2023-04-25T03:34:28;101189.13;;;9.82;73.50
48862;BME280;34681;49.188;-0.374;2023-04-25T03:36:54;101182.66;;;9.83;73.61
48862;BME280;34681;49.188;-0.374;2023-04-25T03:39:19;101180.47;;;9.98;73.89
48862;BME280;34681;49.188;-0.374;2023-04-25T03:41:44;101186.88;;;9.88;73.83
48862;BME280;34681;49.188;-0.374;2023-04-25T03:44:10;101185.66;;;9.80;74.56
48862;BME280;34681;49.188;-0.374;2023-04-25T03:46:35;101186.59;;;9.70;74.19
48862;BME280;34681;49.188;-0.374;2023-04-25T03:49:00;101194.81;;;9.58;74.40
48862;BME280;34681;49.188;-0.374;2023-04-25T03:51:26;101203.06;;;9.47;74.57
48862;BME280;34681;49.188;-0.374;2023-04-25T03:53:52;101208.25;;;9.50;74.06
48862;BME280;34681;49.188;-0.374;2023-04-25T03:56:17;101215.19;;;9.54;74.04
48862;BME280;34681;49.188;-0.374;2023-04-25T03:58:43;101215.06;;;9.56;73.88
48862;BME280;34681;49.188;-0.374;2023-04-25T04:01:08;101211.47;;;9.55;74.27
48862;BME280;34681;49.188;-0.374;2023-04-25T04:03:35;101219.03;;;9.63;74.15
48862;BME280;34681;49.188;-0.374;2023-04-25T04:06:04;101222.47;;;9.76;73.80
48862;BME280;34681;49.188;-0.374;2023-04-25T04:08:30;101220.03;;;9.62;73.13
48862;BME280;34681;49.188;-0.374;2023-04-25T04:10:57;101223.13;;;9.69;73.33
48862;BME280;34681;49.188;-0.374;2023-04-25T04:13:22;101223.44;;;9.75;73.16
48862;BME280;34681;49.188;-0.374;2023-04-25T04:15:48;101219.53;;;9.68;73.14
48862;BME280;34681;49.188;-0.374;2023-04-25T04:18:13;101225.22;;;9.65;73.32
48862;BME280;34681;49.188;-0.374;2023-04-25T04:20:38;101233.03;;;9.70;72.92
48862;BME280;34681;49.188;-0.374;2023-04-25T04:23:04;101238.91;;;9.97;72.35
48862;BME280;34681;49.188;-0.374;2023-04-25T04:25:30;101244.16;;;9.89;72.29
48862;BME280;34681;49.188;-0.374;2023-04-25T04:27:55;101254.28;;;9.98;71.79
48862;BME280;34681;49.188;-0.374;2023-04-25T04:30:24;101255.38;;;10.07;71.24
48862;BME280;34681;49.188;-0.374;2023-04-25T04:32:51;101252.63;;;10.07;72.01
48862;BME280;34681;49.188;-0.374;2023-04-25T04:35:16;101262.72;;;10.06;71.74
48862;BME280;34681;49.188;-0.374;2023-04-25T04:37:42;101258.91;;;9.98;71.66
48862;BME280;34681;49.188;-0.374;2023-04-25T04:40:09;101257.75;;;10.00;72.14
48862;BME280;34681;49.188;-0.374;2023-04-25T04:42:34;101246.59;;;9.92;71.56
48862;BME280;34681;49.188;-0.374;2023-04-25T04:45:01;101249.34;;;9.92;72.20
48862;BME280;34681;49.188;-0.374;2023-04-25T04:47:28;101252.63;;;9.75;71.99
48862;BME280;34681;49.188;-0.374;2023-04-25T04:49:56;101244.94;;;9.80;72.16
48862;BME280;34681;49.188;-0.374;2023-04-25T04:52:22;101257.31;;;9.95;71.80
48862;BME280;34681;49.188;-0.374;2023-04-25T04:54:47;101260.53;;;9.89;71.69
48862;BME280;34681;49.188;-0.374;2023-04-25T04:57:12;101258.97;;;9.75;72.34
48862;BME280;34681;49.188;-0.374;2023-04-25T04:59:38;101266.56;;;9.72;72.48
48862;BME280;34681;49.188;-0.374;2023-04-25T05:02:03;101262.78;;;9.84;72.24
48862;BME280;34681;49.188;-0.374;2023-04-25T05:04:28;101274.09;;;10.23;71.97
48862;BME280;34681;49.188;-0.374;2023-04-25T05:06:53;101276.53;;;10.37;70.37
48862;BME280;34681;49.188;-0.374;2023-04-25T05:09:19;101275.59;;;10.48;70.31
48862;BME280;34681;49.188;-0.374;2023-04-25T05:11:44;101276.06;;;10.53;70.23
48862;BME280;34681;49.188;-0.374;2023-04-25T05:14:10;101274.66;;;10.58;69.77
48862;BME280;34681;49.188;-0.374;2023-04-25T05:16:35;101285.31;;;10.40;70.27
48862;BME280;34681;49.188;-0.374;2023-04-25T05:19:00;101278.56;;;10.24;71.07
48862;BME280;34681;49.188;-0.374;2023-04-25T05:21:26;101287.00;;;10.32;70.57
48862;BME280;34681;49.188;-0.374;2023-04-25T05:23:53;101286.25;;;10.72;69.42
48862;BME280;34681;49.188;-0.374;2023-04-25T05:26:19;101286.47;;;10.80;69.04
48862;BME280;34681;49.188;-0.374;2023-04-25T05:28:45;101293.59;;;10.50;69.40
48862;BME280;34681;49.188;-0.374;2023-04-25T05:31:11;101285.19;;;10.42;69.80
48862;BME280;34681;49.188;-0.374;2023-04-25T05:33:36;101284.00;;;10.35;69.99
48862;BME280;34681;49.188;-0.374;2023-04-25T05:36:02;101281.13;;;10.36;69.64
48862;BME280;34681;49.188;-0.374;2023-04-25T05:38:27;101288.13;;;10.29;70.12
48862;BME280;34681;49.188;-0.374;2023-04-25T05:40:53;101296.34;;;10.29;70.93
48862;BME280;34681;49.188;-0.374;2023-04-25T05:43:18;101309.66;;;10.23;70.61
48862;BME280;34681;49.188;-0.374;2023-04-25T05:45:43;101303.09;;;10.46;69.94
48862;BME280;34681;49.188;-0.374;2023-04-25T05:48:09;101305.63;;;10.38;69.34
48862;BME280;34681;49.188;-0.374;2023-04-25T05:50:34;101305.69;;;10.27;69.46
48862;BME280;34681;49.188;-0.374;2023-04-25T05:53:00;101311.56;;;10.11;70.43
48862;BME280;34681;49.188;-0.374;2023-04-25T05:55:25;101299.44;;;10.25;70.34
48862;BME280;34681;49.188;-0.374;2023-04-25T05:57:50;101310.34;;;10.36;69.02
48862;BME280;34681;49.188;-0.374;2023-04-25T06:00:16;101317.34;;;10.50;68.73
48862;BME280;34681;49.188;-0.374;2023-04-25T06:02:42;101324.75;;;10.59;66.97
48862;BME280;34681;49.188;-0.374;2023-04-25T06:05:08;101327.84;;;10.65;67.14
48862;BME280;34681;49.188;-0.374;2023-04-25T06:07:33;101330.34;;;10.68;66.59
48862;BME280;34681;49.188;-0.374;2023-04-25T06:09:59;101330.16;;;10.49;67.46
48862;BME280;34681;49.188;-0.374;2023-04-25T06:12:26;101326.72;;;10.68;67.20
48862;BME280;34681;49.188;-0.374;2023-04-25T06:14:51;101337.13;;;10.53;66.57
48862;BME280;34681;49.188;-0.374;2023-04-25T06:17:16;101343.69;;;10.30;67.33
48862;BME280;34681;49.188;-0.374;2023-04-25T06:19:42;101343.09;;;10.26;67.23
48862;BME280;34681;49.188;-0.374;2023-04-25T06:22:07;101354.16;;;10.25;67.55
48862;BME280;34681;49.188;-0.374;2023-04-25T06:24:33;101363.41;;;10.45;67.04
48862;BME280;34681;49.188;-0.374;2023-04-25T06:26:59;101364.16;;;10.47;67.17
48862;BME280;34681;49.188;-0.374;2023-04-25T06:29:25;101368.72;;;10.78;66.79
48862;BME280;34681;49.188;-0.374;2023-04-25T06:31:50;101366.03;;;10.67;65.94
48862;BME280;34681;49.188;-0.374;2023-04-25T06:34:16;101368.25;;;10.41;66.37
48862;BME280;34681;49.188;-0.374;2023-04-25T06:36:41;101378.31;;;10.52;66.38
48862;BME280;34681;49.188;-0.374;2023-04-25T06:39:06;101377.06;;;10.77;65.65
48862;BME280;34681;49.188;-0.374;2023-04-25T06:41:32;101370.66;;;10.87;64.41
48862;BME280;34681;49.188;-0.374;2023-04-25T06:43:58;101387.47;;;11.04;63.70
48862;BME280;34681;49.188;-0.374;2023-04-25T06:46:23;101386.22;;;10.87;63.11
48862;BME280;34681;49.188;-0.374;2023-04-25T06:48:48;101386.00;;;10.79;63.77
48862;BME280;34681;49.188;-0.374;2023-04-25T06:51:14;101387.09;;;10.87;64.37
48862;BME280;34681;49.188;-0.374;2023-04-25T06:53:40;101390.66;;;10.67;64.47
48862;BME280;34681;49.188;-0.374;2023-04-25T06:56:05;101391.47;;;10.79;63.87
48862;BME280;34681;49.188;-0.374;2023-04-25T06:58:31;101390.75;;;10.77;64.06
48862;BME280;34681;49.188;-0.374;2023-04-25T07:00:56;101383.88;;;10.82;64.38
48862;BME280;34681;49.188;-0.374;2023-04-25T07:03:22;101391.63;;;11.19;63.60
48862;BME280;34681;49.188;-0.374;2023-04-25T07:05:47;101383.84;;;11.24;62.88
48862;BME280;34681;49.188;-0.374;2023-04-25T07:08:12;101382.41;;;11.50;62.51
48862;BME280;34681;49.188;-0.374;2023-04-25T07:10:37;101394.69;;;11.87;61.37
48862;BME280;34681;49.188;-0.374;2023-04-25T07:13:03;101394.44;;;11.59;61.24
48862;BME280;34681;49.188;-0.374;2023-04-25T07:15:28;101395.53;;;12.85;58.87
48862;BME280;34681;49.188;-0.374;2023-04-25T07:17:54;101395.84;;;12.92;58.13
48862;BME280;34681;49.188;-0.374;2023-04-25T07:20:19;101398.44;;;15.39;53.42
48862;BME280;34681;49.188;-0.374;2023-04-25T07:22:45;101404.19;;;19.70;42.34
48862;BME280;34681;49.188;-0.374;2023-04-25T07:25:10;101406.31;;;21.90;37.46
48862;BME280;34681;49.188;-0.374;2023-04-25T07:27:36;101404.06;;;20.23;39.50
48862;BME280;34681;49.188;-0.374;2023-04-25T07:30:01;101405.69;;;20.89;38.86
48862;BME280;34681;49.188;-0.374;2023-04-25T07:32:27;101404.69;;;20.39;37.82
48862;BME280;34681;49.188;-0.374;2023-04-25T07:34:53;101401.50;;;18.56;41.92
48862;BME280;34681;49.188;-0.374;2023-04-25T07:37:18;101410.06;;;18.07;41.84
48862;BME280;34681;49.188;-0.374;2023-04-25T07:39:46;101428.50;;;18.22;42.60
48862;BME280;34681;49.188;-0.374;2023-04-25T07:42:12;101423.38;;;19.19;39.57
48862;BME280;34681;49.188;-0.374;2023-04-25T07:44:37;101422.09;;;19.97;37.51
48862;BME280;34681;49.188;-0.374;2023-04-25T07:47:07;101435.50;;;19.03;40.25
48862;BME280;34681;49.188;-0.374;2023-04-25T07:49:33;101425.41;;;18.17;41.38
48862;BME280;34681;49.188;-0.374;2023-04-25T07:51:59;101430.06;;;16.21;45.39
48862;BME280;34681;49.188;-0.374;2023-04-25T07:54:25;101435.25;;;17.64;42.16
48862;BME280;34681;49.188;-0.374;2023-04-25T07:56:50;101448.00;;;16.09;45.13
48862;BME280;34681;49.188;-0.374;2023-04-25T07:59:16;101447.63;;;14.55;48.45
48862;BME280;34681;49.188;-0.374;2023-04-25T08:01:41;101453.97;;;14.65;48.92
48862;BME280;34681;49.188;-0.374;2023-04-25T08:04:06;101455.84;;;14.82;48.06
48862;BME280;34681;49.188;-0.374;2023-04-25T08:06:31;101450.69;;;13.97;50.25
48862;BME280;34681;49.188;-0.374;2023-04-25T08:08:57;101460.38;;;14.01;51.52
48862;BME280;34681;49.188;-0.374;2023-04-25T08:11:23;101466.28;;;14.06;51.21
48862;BME280;34681;49.188;-0.374;2023-04-25T08:13:48;101475.19;;;13.90;50.90
48862;BME280;34681;49.188;-0.374;2023-04-25T08:16:13;101473.44;;;14.72;48.18
48862;BME280;34681;49.188;-0.374;2023-04-25T08:18:39;101473.78;;;14.86;48.15
48862;BME280;34681;49.188;-0.374;2023-04-25T08:21:04;101474.06;;;19.51;40.74
48862;BME280;34681;49.188;-0.374;2023-04-25T08:23:30;101471.56;;;16.96;43.38
48862;BME280;34681;49.188;-0.374;2023-04-25T08:25:55;101469.50;;;15.28;47.35
48862;BME280;34681;49.188;-0.374;2023-04-25T08:28:21;101474.31;;;17.69;44.60
48862;BME280;34681;49.188;-0.374;2023-04-25T08:30:46;101472.28;;;17.72;42.29
48862;BME280;34681;49.188;-0.374;2023-04-25T08:33:11;101478.16;;;18.32;40.52
48862;BME280;34681;49.188;-0.374;2023-04-25T08:35:37;101479.34;;;19.23;40.05
48862;BME280;34681;49.188;-0.374;2023-04-25T08:38:02;101474.56;;;20.51;36.70
48862;BME280;34681;49.188;-0.374;2023-04-25T08:40:28;101484.50;;;20.01;37.35
48862;BME280;34681;49.188;-0.374;2023-04-25T08:43:00;101487.41;;;18.08;40.79
48862;BME280;34681;49.188;-0.374;2023-04-25T08:45:31;101489.19;;;15.77;44.34
48862;BME280;34681;49.188;-0.374;2023-04-25T08:47:57;101482.47;;;16.90;43.86
48862;BME280;34681;49.188;-0.374;2023-04-25T08:50:23;101496.59;;;19.56;39.59
48862;BME280;34681;49.188;-0.374;2023-04-25T08:52:50;101492.78;;;20.54;36.75
48862;BME280;34681;49.188;-0.374;2023-04-25T08:55:18;101506.16;;;19.53;37.40
48862;BME280;34681;49.188;-0.374;2023-04-25T08:57:44;101501.22;;;19.41;38.39
48862;BME280;34681;49.188;-0.374;2023-04-25T09:00:11;101485.09;;;18.59;39.27
48862;BME280;34681;49.188;-0.374;2023-04-25T09:02:38;101491.97;;;19.25;38.24
48862;BME280;34681;49.188;-0.374;2023-04-25T09:05:05;101499.09;;;18.27;39.79
48862;BME280;34681;49.188;-0.374;2023-04-25T09:07:32;101491.19;;;16.26;42.42
48862;BME280;34681;49.188;-0.374;2023-04-25T09:09:57;101492.88;;;16.62;41.72
48862;BME280;34681;49.188;-0.374;2023-04-25T09:12:25;101502.31;;;15.57;44.04
48862;BME280;34681;49.188;-0.374;2023-04-25T09:15:21;101513.34;;;15.39;44.61
48862;BME280;34681;49.188;-0.374;2023-04-25T09:17:57;101492.91;;;14.88;45.92
48862;BME280;34681;49.188;-0.374;2023-04-25T09:20:23;101500.69;;;15.28;45.64
48862;BME280;34681;49.188;-0.374;2023-04-25T09:23:01;101502.53;;;17.24;44.05
48862;BME280;34681;49.188;-0.374;2023-04-25T09:25:33;101509.78;;;17.33;42.88
48862;BME280;34681;49.188;-0.374;2023-04-25T09:28:03;101514.66;;;16.22;43.82
48862;BME280;34681;49.188;-0.374;2023-04-25T09:30:30;101523.28;;;15.50;46.14
48862;BME280;34681;49.188;-0.374;2023-04-25T09:32:57;101520.25;;;14.81;47.16
48862;BME280;34681;49.188;-0.374;2023-04-25T09:35:24;101525.50;;;15.28;46.09
48862;BME280;34681;49.188;-0.374;2023-04-25T09:37:53;101530.59;;;15.59;46.07
48862;BME280;34681;49.188;-0.374;2023-04-25T09:40:19;101535.88;;;15.96;44.69
48862;BME280;34681;49.188;-0.374;2023-04-25T09:42:44;101525.50;;;15.64;45.46
48862;BME280;34681;49.188;-0.374;2023-04-25T09:45:12;101526.69;;;15.61;45.64
48862;BME280;34681;49.188;-0.374;2023-04-25T09:47:38;101525.34;;;15.91;45.43
48862;BME280;34681;49.188;-0.374;2023-04-25T09:50:13;101526.50;;;15.81;45.87
48862;BME280;34681;49.188;-0.374;2023-04-25T09:52:40;101532.22;;;15.08;46.88
48862;BME280;34681;49.188;-0.374;2023-04-25T09:55:05;101528.66;;;14.52;47.48
48862;BME280;34681;49.188;-0.374;2023-04-25T09:57:31;101531.66;;;13.85;49.40
48862;BME280;34681;49.188;-0.374;2023-04-25T09:59:57;101530.91;;;13.26;49.58
48862;BME280;34681;49.188;-0.374;2023-04-25T10:02:26;101529.44;;;13.51;49.52
48862;BME280;34681;49.188;-0.374;2023-04-25T10:04:55;101540.25;;;13.62;49.56
48862;BME280;34681;49.188;-0.374;2023-04-25T10:07:26;101541.72;;;13.47;49.88
48862;BME280;34681;49.188;-0.374;2023-04-25T10:10:03;101526.69;;;13.41;50.56
48862;BME280;34681;49.188;-0.374;2023-04-25T10:12:30;101538.28;;;13.35;50.36
48862;BME280;34681;49.188;-0.374;2023-04-25T10:14:58;101538.53;;;13.23;50.47
48862;BME280;34681;49.188;-0.374;2023-04-25T10:17:26;101531.69;;;12.88;52.57
48862;BME280;34681;49.188;-0.374;2023-04-25T10:19:54;101539.84;;;13.47;51.58
48862;BME280;34681;49.188;-0.374;2023-04-25T10:22:31;101543.03;;;13.53;52.25
48862;BME280;34681;49.188;-0.374;2023-04-25T10:24:58;101547.63;;;13.62;51.31
48862;BME280;34681;49.188;-0.374;2023-04-25T10:27:23;101552.66;;;13.86;51.42
48862;BME280;34681;49.188;-0.374;2023-04-25T10:32:31;101543.88;;;13.53;50.82
48862;BME280;34681;49.188;-0.374;2023-04-25T10:34:57;101534.69;;;13.82;50.80
48862;BME280;34681;49.188;-0.374;2023-04-25T10:37:23;101535.72;;;13.81;50.51
48862;BME280;34681;49.188;-0.374;2023-04-25T10:39:49;101518.56;;;14.06;50.45
48862;BME280;34681;49.188;-0.374;2023-04-25T10:42:14;101523.72;;;13.72;49.92
48862;BME280;34681;49.188;-0.374;2023-04-25T10:44:40;101534.50;;;13.36;51.45
48862;BME280;34681;49.188;-0.374;2023-04-25T10:47:07;101528.38;;;13.71;51.23
48862;BME280;34681;49.188;-0.374;2023-04-25T10:49:42;101533.72;;;14.20;49.40
48862;BME280;34681;49.188;-0.374;2023-04-25T10:54:57;101535.94;;;13.50;49.47
48862;BME280;34681;49.188;-0.374;2023-04-25T10:57:44;101539.56;;;13.51;48.65
48862;BME280;34681;49.188;-0.374;2023-04-25T11:00:16;101557.63;;;13.53;50.56
48862;BME280;34681;49.188;-0.374;2023-04-25T11:02:45;101538.69;;;13.40;50.47
48862;BME280;34681;49.188;-0.374;2023-04-25T11:07:54;101544.31;;;13.48;51.43
48862;BME280;34681;49.188;-0.374;2023-04-25T11:10:28;101549.97;;;13.18;51.74
48862;BME280;34681;49.188;-0.374;2023-04-25T11:12:54;101556.88;;;13.70;50.08
48862;BME280;34681;49.188;-0.374;2023-04-25T11:15:20;101566.16;;;13.11;51.53
48862;BME280;34681;49.188;-0.374;2023-04-25T11:17:45;101559.94;;;13.19;51.03
48862;BME280;34681;49.188;-0.374;2023-04-25T11:20:12;101555.06;;;13.32;48.68
48862;BME280;34681;49.188;-0.374;2023-04-25T11:22:39;101536.19;;;12.99;50.28
48862;BME280;34681;49.188;-0.374;2023-04-25T11:25:09;101543.88;;;13.05;49.90
48862;BME280;34681;49.188;-0.374;2023-04-25T11:27:38;101546.06;;;13.40;49.31
48862;BME280;34681;49.188;-0.374;2023-04-25T11:30:12;101538.94;;;13.57;49.08
48862;BME280;34681;49.188;-0.374;2023-04-25T11:32:39;101544.16;;;13.69;49.29
48862;BME280;34681;49.188;-0.374;2023-04-25T11:35:05;101525.94;;;13.39;49.47
48862;BME280;34681;49.188;-0.374;2023-04-25T11:37:31;101528.56;;;13.21;49.61
48862;BME280;34681;49.188;-0.374;2023-04-25T11:39:56;101539.69;;;13.10;49.53
48862;BME280;34681;49.188;-0.374;2023-04-25T11:42:22;101532.88;;;12.85;49.17
48862;BME280;34681;49.188;-0.374;2023-04-25T11:44:47;101529.56;;;13.11;49.21
48862;BME280;34681;49.188;-0.374;2023-04-25T11:47:13;101525.09;;;13.29;48.89
48862;BME280;34681;49.188;-0.374;2023-04-25T11:49:38;101521.75;;;13.16;48.58
48862;BME280;34681;49.188;-0.374;2023-04-25T11:52:06;101520.44;;;13.10;48.91
48862;BME280;34681;49.188;-0.374;2023-04-25T11:54:35;101524.06;;;13.40;48.49
48862;BME280;34681;49.188;-0.374;2023-04-25T11:57:00;101528.44;;;13.33;49.01
48862;BME280;34681;49.188;-0.374;2023-04-25T11:59:27;101539.53;;;13.12;49.47
48862;BME280;34681;49.188;-0.374;2023-04-25T12:01:52;101536.41;;;13.26;49.43
48862;BME280;34681;49.188;-0.374;2023-04-25T12:04:23;101531.88;;;13.54;48.65
48862;BME280;34681;49.188;-0.374;2023-04-25T12:06:53;101538.53;;;13.52;48.26
48862;BME280;34681;49.188;-0.374;2023-04-25T12:09:20;101542.59;;;13.47;48.43
48862;BME280;34681;49.188;-0.374;2023-04-25T12:11:56;101534.38;;;13.28;49.04
48862;BME280;34681;49.188;-0.374;2023-04-25T12:16:50;101553.34;;;13.97;48.29
48862;BME280;34681;49.188;-0.374;2023-04-25T12:19:17;101540.91;;;13.93;46.95
48862;BME280;34681;49.188;-0.374;2023-04-25T12:21:43;101545.19;;;13.68;47.74
48862;BME280;34681;49.188;-0.374;2023-04-25T12:24:22;101541.81;;;13.84;48.37
48862;BME280;34681;49.188;-0.374;2023-04-25T12:26:50;101559.56;;;14.09;47.23
48862;BME280;34681;49.188;-0.374;2023-04-25T12:29:27;101543.72;;;14.58;46.69
48862;BME280;34681;49.188;-0.374;2023-04-25T12:31:54;101548.97;;;14.04;47.13
48862;BME280;34681;49.188;-0.374;2023-04-25T12:34:21;101559.19;;;13.85;48.00
48862;BME280;34681;49.188;-0.374;2023-04-25T12:36:47;101568.72;;;13.81;48.67
48862;BME280;34681;49.188;-0.374;2023-04-25T12:39:20;101561.75;;;13.96;47.07
48862;BME280;34681;49.188;-0.374;2023-04-25T12:41:47;101571.22;;;14.21;48.40
48862;BME280;34681;49.188;-0.374;2023-04-25T12:44:12;101572.09;;;14.21;48.05
48862;BME280;34681;49.188;-0.374;2023-04-25T12:46:39;101571.88;;;13.95;47.55